Time;durP1;ratioP1;P1;durP2;ratioP2;P2;SDS_P1;SDS_P2;PMS_P1;PMS_P2;Temp;Humidity;BMP_temperature;BMP_pressure;BME280_temperature;BME280_humidity;BME280_pressure;Samples;Min_cycle;Max_cycle;Signal;HPM_P1;HPM_P2
2022/12/06 00:00:43;;;;;;;;;;;;;;;22.34;41.29;102168.19;7249862;19;153085;-52
2022/12/06 00:03:11;;;;;;;;;;;;;;;22.31;41.53;102169.59;7260174;19;154125;-52
2022/12/06 00:05:38;;;;;;;;;;;;;;;22.29;41.96;102173.84;7247554;19;153433;-53
2022/12/06 00:08:11;;;;;;;;;;;;;;;22.27;41.96;102171.28;7248866;19;151961;-52
2022/12/06 00:10:38;;;;;;;;;;;;;;;22.26;42.26;102166.78;7250338;19;153922;-53
2022/12/06 00:13:05;;;;;;;;;;;;;;;22.24;42.44;102169.06;7245561;19;154796;-52
2022/12/06 00:15:34;;;;;;;;;;;;;;;22.23;42.04;102164.56;7250458;19;152113;-52
2022/12/06 00:18:01;;;;;;;;;;;;;;;22.20;42.56;102159.53;7250633;19;153343;-53
2022/12/06 00:20:28;;;;;;;;;;;;;;;22.21;42.14;102157.56;7246689;19;152656;-52
2022/12/06 00:22:56;;;;;;;;;;;;;;;22.15;42.18;102159.56;7248823;19;152877;-53
2022/12/06 00:25:23;;;;;;;;;;;;;;;22.14;42.58;102169.13;7257816;19;153495;-53
2022/12/06 00:27:50;;;;;;;;;;;;;;;22.11;42.70;102167.75;7249109;19;153146;-52
2022/12/06 00:30:17;;;;;;;;;;;;;;;22.11;42.41;102169.72;7250211;19;153091;-52
2022/12/06 00:32:44;;;;;;;;;;;;;;;22.07;42.69;102169.47;7248565;19;154873;-52
2022/12/06 00:35:11;;;;;;;;;;;;;;;22.05;42.56;102160.44;7248257;19;153334;-52
2022/12/06 00:37:38;;;;;;;;;;;;;;;22.09;42.60;102166.34;7252468;19;155261;-52
2022/12/06 00:40:06;;;;;;;;;;;;;;;22.03;42.39;102170.31;7248978;19;154366;-52
2022/12/06 00:42:33;;;;;;;;;;;;;;;22.03;42.89;102164.69;7251880;19;152704;-53
2022/12/06 00:45:00;;;;;;;;;;;;;;;22.01;43.07;102164.97;7256099;19;153541;-51
2022/12/06 00:47:27;;;;;;;;;;;;;;;22.02;43.09;102160.19;7249874;19;153391;-52
2022/12/06 00:49:54;;;;;;;;;;;;;;;22.03;43.39;102153.44;7249993;19;153044;-52
2022/12/06 00:52:21;;;;;;;;;;;;;;;21.95;43.14;102156.81;7245268;19;154633;-52
2022/12/06 00:54:48;;;;;;;;;;;;;;;21.95;42.67;102149.22;7251523;19;153859;-53
2022/12/06 00:57:15;;;;;;;;;;;;;;;22.00;42.56;102157.66;7251279;19;155493;-53
2022/12/06 00:59:42;;;;;;;;;;;;;;;21.97;42.76;102152.63;7252026;19;156261;-52
2022/12/06 01:02:09;;;;;;;;;;;;;;;21.98;42.98;102153.47;7248377;19;153156;-53
2022/12/06 01:04:36;;;;;;;;;;;;;;;21.95;42.77;102152.03;7249772;19;153420;-53
2022/12/06 01:07:03;;;;;;;;;;;;;;;21.94;42.74;102149.53;7255877;19;154132;-52
2022/12/06 01:09:30;;;;;;;;;;;;;;;21.92;42.57;102151.75;7250009;19;152751;-52
2022/12/06 01:11:57;;;;;;;;;;;;;;;21.89;42.71;102149.53;7245232;19;153827;-52
2022/12/06 01:14:25;;;;;;;;;;;;;;;21.86;42.48;102142.50;7247545;19;152773;-52
2022/12/06 01:16:52;;;;;;;;;;;;;;;21.86;42.94;102150.09;7249113;19;153687;-52
2022/12/06 01:19:19;;;;;;;;;;;;;;;21.82;42.87;102146.16;7252753;19;153946;-53
2022/12/06 01:21:47;;;;;;;;;;;;;;;21.82;42.87;102148.97;7247007;19;152993;-53
2022/12/06 01:24:14;;;;;;;;;;;;;;;21.77;42.52;102138.59;7250478;19;153755;-53
2022/12/06 01:26:41;;;;;;;;;;;;;;;21.74;42.39;102153.25;7244994;19;153591;-52
2022/12/06 01:29:08;;;;;;;;;;;;;;;21.70;42.79;102143.69;7254363;19;153585;-55
2022/12/06 01:31:35;;;;;;;;;;;;;;;21.68;42.91;102148.75;7248811;19;156247;-52
2022/12/06 01:34:05;;;;;;;;;;;;;;;21.68;42.52;102143.13;7245573;19;152839;-53
2022/12/06 01:36:32;;;;;;;;;;;;;;;21.62;42.80;102147.94;7246019;19;154151;-52
2022/12/06 01:39:05;;;;;;;;;;;;;;;21.62;42.83;102147.13;7248713;19;154256;-52
2022/12/06 01:41:32;;;;;;;;;;;;;;;21.61;42.99;102143.44;7247908;19;152995;-53
2022/12/06 01:43:59;;;;;;;;;;;;;;;21.57;43.18;102138.69;7246436;19;153186;-52
2022/12/06 01:46:27;;;;;;;;;;;;;;;21.56;43.26;102137.00;7247718;19;154162;-52
2022/12/06 01:49:04;;;;;;;;;;;;;;;21.51;42.96;102135.03;7245149;19;153911;-52
2022/12/06 01:51:31;;;;;;;;;;;;;;;21.50;42.76;102138.97;7254572;19;152755;-51
2022/12/06 01:53:59;;;;;;;;;;;;;;;21.48;42.98;102131.97;7245170;19;153580;-52
2022/12/06 01:56:26;;;;;;;;;;;;;;;21.47;43.39;102128.31;7246187;19;153556;-53
2022/12/06 01:58:55;;;;;;;;;;;;;;;21.44;43.46;102123.25;7249553;19;153907;-53
2022/12/06 02:01:24;;;;;;;;;;;;;;;21.41;43.12;102129.44;7247272;19;152866;-52
2022/12/06 02:03:53;;;;;;;;;;;;;;;21.38;43.44;102120.75;7247923;19;152958;-52
2022/12/06 02:06:21;;;;;;;;;;;;;;;21.35;43.20;102130.56;7247517;19;153267;-52
2022/12/06 02:08:48;;;;;;;;;;;;;;;21.35;43.70;102118.53;7248717;19;151938;-52
2022/12/06 02:11:15;;;;;;;;;;;;;;;21.33;43.60;102121.59;7247690;19;152209;-52
2022/12/06 02:13:42;;;;;;;;;;;;;;;21.29;43.50;102124.16;7247966;19;154762;-52
2022/12/06 02:16:14;;;;;;;;;;;;;;;21.30;43.48;102123.00;7249535;19;152543;-52
2022/12/06 02:18:41;;;;;;;;;;;;;;;21.24;43.30;102120.50;7250909;19;153717;-53
2022/12/06 02:21:08;;;;;;;;;;;;;;;21.23;43.32;102122.47;7255236;19;153699;-53
2022/12/06 02:23:44;;;;;;;;;;;;;;;21.21;43.55;102116.28;7251206;19;153292;-52
2022/12/06 02:26:17;;;;;;;;;;;;;;;21.18;43.35;102116.00;7249168;19;154512;-52
2022/12/06 02:28:44;;;;;;;;;;;;;;;21.16;43.79;102113.50;7246086;19;152713;-52
2022/12/06 02:31:12;;;;;;;;;;;;;;;21.14;43.73;102114.91;7247747;19;152918;-52
2022/12/06 02:33:45;;;;;;;;;;;;;;;21.12;43.63;102122.75;7241404;19;154018;-53
2022/12/06 02:36:12;;;;;;;;;;;;;;;21.10;43.64;102130.63;7254754;19;151803;-52
2022/12/06 02:38:43;;;;;;;;;;;;;;;21.09;43.83;102120.50;7245883;19;154133;-52
2022/12/06 02:41:18;;;;;;;;;;;;;;;21.05;43.88;102122.19;7245563;19;152781;-52
2022/12/06 02:43:47;;;;;;;;;;;;;;;21.03;44.20;102125.28;7243325;19;152532;-52
2022/12/06 02:46:16;;;;;;;;;;;;;;;21.02;43.96;102123.59;7252697;19;152867;-53
2022/12/06 02:48:44;;;;;;;;;;;;;;;20.99;44.05;102126.97;7247669;19;153029;-52
2022/12/06 02:51:12;;;;;;;;;;;;;;;20.97;44.17;102125.56;7244605;19;153524;-51
2022/12/06 02:53:43;;;;;;;;;;;;;;;20.97;43.95;102125.56;7241587;19;153671;-52
2022/12/06 02:56:12;;;;;;;;;;;;;;;20.93;44.11;102130.94;7254164;19;152855;-52
2022/12/06 02:58:39;;;;;;;;;;;;;;;20.92;44.26;102131.19;7241968;19;154561;-52
2022/12/06 03:01:13;;;;;;;;;;;;;;;20.89;44.17;102124.19;7247892;19;152817;-52
2022/12/06 03:03:50;;;;;;;;;;;;;;;20.86;44.05;102128.38;7247735;19;152922;-52
2022/12/06 03:06:20;;;;;;;;;;;;;;;20.85;44.19;102123.03;7243954;19;153675;-52
2022/12/06 03:08:58;;;;;;;;;;;;;;;20.82;44.14;102124.47;7244149;19;154407;-53
2022/12/06 03:11:28;;;;;;;;;;;;;;;20.81;44.24;102122.78;7243813;19;152755;-53
2022/12/06 03:13:59;;;;;;;;;;;;;;;20.77;44.42;102115.19;7237773;19;152782;-53
2022/12/06 03:16:29;;;;;;;;;;;;;;;20.77;44.21;102115.19;7243552;19;153079;-52
2022/12/06 03:18:59;;;;;;;;;;;;;;;20.74;44.33;102111.00;7248500;19;154297;-52
2022/12/06 03:21:30;;;;;;;;;;;;;;;20.72;44.61;102112.38;7243762;19;154166;-52
2022/12/06 03:23:58;;;;;;;;;;;;;;;20.71;44.44;102116.34;7240451;19;153492;-52
2022/12/06 03:26:26;;;;;;;;;;;;;;;20.68;44.29;102108.44;7241070;19;153412;-52
2022/12/06 03:28:55;;;;;;;;;;;;;;;20.67;44.24;102120.84;7241465;19;152353;-50
2022/12/06 03:31:22;;;;;;;;;;;;;;;20.66;44.40;102107.91;7244238;19;154463;-52
2022/12/06 03:33:54;;;;;;;;;;;;;;;20.63;44.30;102114.06;7239783;19;152903;-52
2022/12/06 03:36:23;;;;;;;;;;;;;;;20.59;44.21;102112.94;7241958;19;153086;-53
2022/12/06 03:38:54;;;;;;;;;;;;;;;20.57;44.62;102104.81;7246446;19;153975;-52
2022/12/06 03:41:24;;;;;;;;;;;;;;;20.56;44.25;102107.91;7249287;19;153643;-52
2022/12/06 03:43:52;;;;;;;;;;;;;;;20.55;44.26;102109.00;7244127;19;153751;-52
2022/12/06 03:46:23;;;;;;;;;;;;;;;20.53;44.38;102112.13;7242896;19;152416;-53
2022/12/06 03:48:51;;;;;;;;;;;;;;;20.50;44.42;102106.19;7242641;19;153822;-52
2022/12/06 03:51:22;;;;;;;;;;;;;;;20.49;44.67;102099.75;7241236;19;152524;-53
2022/12/06 03:53:50;;;;;;;;;;;;;;;20.46;44.50;102097.50;7239925;19;154528;-52
2022/12/06 03:56:18;;;;;;;;;;;;;;;20.42;44.34;102097.22;7243191;19;152575;-51
2022/12/06 03:58:45;;;;;;;;;;;;;;;20.42;44.18;102096.38;7242591;19;153695;-53
2022/12/06 04:01:12;;;;;;;;;;;;;;;20.40;44.39;102098.63;7243452;19;153502;-51
2022/12/06 04:03:39;;;;;;;;;;;;;;;20.37;44.39;102099.19;7250551;19;153141;-52
2022/12/06 04:06:06;;;;;;;;;;;;;;;20.37;44.14;102099.19;7241663;19;154834;-52
2022/12/06 04:08:35;;;;;;;;;;;;;;;20.34;44.42;102095.00;7241614;19;153221;-52
2022/12/06 04:11:02;;;;;;;;;;;;;;;20.32;44.56;102090.75;7246346;19;153418;-52
2022/12/06 04:13:30;;;;;;;;;;;;;;;20.31;44.55;102091.88;7239549;19;152643;-53
2022/12/06 04:15:58;;;;;;;;;;;;;;;20.27;44.44;102088.75;7244619;19;154402;-51
2022/12/06 04:18:26;;;;;;;;;;;;;;;20.26;44.38;102086.25;7247606;19;152796;-53
2022/12/06 04:23:33;;;;;;;;;;;;;;;20.23;44.37;102089.59;7252527;19;152906;-52
2022/12/06 04:26:00;;;;;;;;;;;;;;;20.22;44.58;102093.50;7257593;19;153832;-54
2022/12/06 04:39:01;;;;;;;;;;;;;;;20.13;44.54;102086.75;7251922;19;153547;-52
2022/12/06 04:44:05;;;;;;;;;;;;;;;20.08;44.61;102081.97;7249892;19;152353;-53
2022/12/06 04:46:32;;;;;;;;;;;;;;;20.06;44.52;102075.81;7251663;19;153278;-53
2022/12/06 04:48:59;;;;;;;;;;;;;;;20.04;44.96;102080.00;7255561;19;153807;-52
2022/12/06 04:51:26;;;;;;;;;;;;;;;20.04;44.63;102082.81;7250249;19;154208;-53
2022/12/06 04:53:53;;;;;;;;;;;;;;;20.02;44.63;102077.50;7250270;19;154712;-53
2022/12/06 04:56:20;;;;;;;;;;;;;;;19.99;45.08;102078.88;7248242;19;152689;-52
2022/12/06 04:58:47;;;;;;;;;;;;;;;19.97;45.03;102078.34;7248408;19;153342;-52
2022/12/06 05:01:14;;;;;;;;;;;;;;;19.95;45.11;102077.75;7250135;19;153887;-52
2022/12/06 05:03:41;;;;;;;;;;;;;;;19.93;44.94;102071.59;7248251;19;153047;-52
2022/12/06 05:06:10;;;;;;;;;;;;;;;19.90;44.91;102072.13;7248096;19;152851;-51
2022/12/06 05:08:37;;;;;;;;;;;;;;;19.91;45.04;102071.00;7253020;19;152637;-52
2022/12/06 05:11:04;;;;;;;;;;;;;;;19.90;44.98;102076.91;7251059;19;152577;-53
2022/12/06 05:13:31;;;;;;;;;;;;;;;19.88;44.87;102071.59;7241942;19;153153;-52
2022/12/06 05:16:01;;;;;;;;;;;;;;;19.87;45.19;102072.69;7248710;19;153252;-52
2022/12/06 05:18:28;;;;;;;;;;;;;;;19.86;45.01;102075.75;7245193;19;152637;-51
2022/12/06 05:21:03;;;;;;;;;;;;;;;19.85;45.26;102074.91;7247901;19;154592;-54
2022/12/06 05:23:31;;;;;;;;;;;;;;;19.85;44.90;102074.91;7246698;19;154730;-52
2022/12/06 05:25:58;;;;;;;;;;;;;;;19.84;45.67;102076.06;7250178;19;154454;-52
2022/12/06 05:28:26;;;;;;;;;;;;;;;19.87;45.90;102078.31;7245717;19;153449;-52
2022/12/06 05:30:53;;;;;;;;;;;;;;;19.88;46.27;102080.00;7258812;19;153065;-52
2022/12/06 05:33:20;;;;;;;;;;;;;;;19.90;46.84;102074.09;7248438;19;153144;-51
2022/12/06 05:35:47;;;;;;;;;;;;;;;19.93;46.83;102077.22;7248519;19;153948;-51
2022/12/06 05:38:14;;;;;;;;;;;;;;;19.97;47.17;102080.28;7255673;19;153676;-52
2022/12/06 05:40:42;;;;;;;;;;;;;;;20.01;46.83;102077.78;7252153;19;152726;-52
2022/12/06 05:43:09;;;;;;;;;;;;;;;20.05;47.31;102078.91;7249417;19;152840;-52
2022/12/06 05:45:36;;;;;;;;;;;;;;;20.09;47.15;102080.03;7246116;19;153603;-53
2022/12/06 05:48:04;;;;;;;;;;;;;;;20.13;47.44;102081.16;7247164;19;153352;-52
2022/12/06 05:50:31;;;;;;;;;;;;;;;20.17;47.40;102080.31;7249750;19;153179;-51
2022/12/06 05:52:58;;;;;;;;;;;;;;;20.21;47.76;102083.44;7257490;19;153613;-52
2022/12/06 05:55:26;;;;;;;;;;;;;;;20.24;47.67;102089.31;7249003;19;153236;-52
2022/12/06 05:57:53;;;;;;;;;;;;;;;20.30;47.18;102088.25;7262187;19;153329;-51
2022/12/06 06:00:20;;;;;;;;;;;;;;;20.34;47.26;102085.72;7250152;19;153673;-52
2022/12/06 06:02:47;;;;;;;;;;;;;;;20.39;47.38;102091.34;7249491;19;152809;-52
2022/12/06 06:05:14;;;;;;;;;;;;;;;20.44;47.56;102093.31;7247209;19;152522;-52
2022/12/06 06:07:41;;;;;;;;;;;;;;;20.46;47.10;102091.88;7247718;19;154220;-51
2022/12/06 06:10:08;;;;;;;;;;;;;;;20.52;47.42;102087.13;7249043;19;153118;-53
2022/12/06 06:12:35;;;;;;;;;;;;;;;20.57;47.27;102084.31;7245876;19;153049;-52
2022/12/06 06:15:05;;;;;;;;;;;;;;;20.61;47.24;102089.09;7253097;19;154260;-52
2022/12/06 06:17:33;;;;;;;;;;;;;;;20.65;47.52;102087.41;7248942;19;153009;-52
2022/12/06 06:20:04;;;;;;;;;;;;;;;20.71;48.75;102083.47;7243733;19;153405;-53
2022/12/06 06:22:32;;;;;;;;;;;;;;;20.74;48.58;102074.47;7244615;19;152302;-51
2022/12/06 06:25:00;;;;;;;;;;;;;;;20.80;48.37;102087.38;7249365;19;152754;-53
2022/12/06 06:27:27;;;;;;;;;;;;;;;20.84;48.39;102088.53;7243356;19;154492;-52
2022/12/06 06:29:54;;;;;;;;;;;;;;;20.89;48.17;102084.00;7245599;19;152900;-53
2022/12/06 06:32:21;;;;;;;;;;;;;;;20.94;47.68;102090.44;7245320;19;153947;-52
2022/12/06 06:34:48;;;;;;;;;;;;;;;20.99;47.42;102089.59;7244311;19;154158;-52
2022/12/06 06:37:15;;;;;;;;;;;;;;;21.04;48.24;102086.78;7253736;19;154500;-52
2022/12/06 06:39:42;;;;;;;;;;;;;;;21.08;48.35;102083.13;7244852;19;152724;-52
2022/12/06 06:42:09;;;;;;;;;;;;;;;21.11;47.86;102088.19;7245063;19;152621;-52
2022/12/06 06:44:36;;;;;;;;;;;;;;;21.16;48.05;102087.38;7244920;19;153525;-53
2022/12/06 06:47:03;;;;;;;;;;;;;;;21.20;48.23;102091.28;7243487;19;153450;-52
2022/12/06 06:49:30;;;;;;;;;;;;;;;21.25;47.82;102085.66;7246344;19;153368;-52
2022/12/06 06:51:57;;;;;;;;;;;;;;;21.31;47.11;102084.47;7246566;19;155673;-53
2022/12/06 06:54:26;;;;;;;;;;;;;;;21.32;47.08;102094.63;7248501;19;153479;-52
2022/12/06 06:56:55;;;;;;;;;;;;;;;21.36;46.93;102098.53;7253787;19;153923;-53
2022/12/06 06:59:23;;;;;;;;;;;;;;;21.40;46.57;102091.19;7240689;19;154107;-53
2022/12/06 07:01:50;;;;;;;;;;;;;;;21.45;46.71;102105.25;7243156;19;152323;-52
2022/12/06 07:04:17;;;;;;;;;;;;;;;21.49;46.65;102088.63;7245075;19;155701;-52
2022/12/06 07:06:44;;;;;;;;;;;;;;;21.52;46.56;102090.91;7244148;19;153859;-52
2022/12/06 07:09:11;;;;;;;;;;;;;;;21.56;46.98;102095.66;7246594;19;153052;-52
2022/12/06 07:11:38;;;;;;;;;;;;;;;21.59;46.42;102100.69;7244638;19;153107;-53
2022/12/06 07:14:05;;;;;;;;;;;;;;;21.64;46.28;102097.03;7240146;19;154210;-52
2022/12/06 07:16:33;;;;;;;;;;;;;;;21.67;46.31;102100.09;7244464;19;153166;-53
2022/12/06 07:19:00;;;;;;;;;;;;;;;21.71;46.61;102104.00;7252511;19;153053;-57
2022/12/06 07:21:34;;;;;;;;;;;;;;;21.76;46.00;102105.13;7245570;19;154198;-53
2022/12/06 07:24:01;;;;;;;;;;;;;;;21.78;45.48;102112.16;7249248;19;154084;-52
2022/12/06 07:26:29;;;;;;;;;;;;;;;21.81;45.52;102107.91;7242874;19;153574;-53
2022/12/06 07:28:56;;;;;;;;;;;;;;;21.85;44.70;102118.28;7242438;19;153296;-52
2022/12/06 07:31:25;;;;;;;;;;;;;;;21.87;44.51;102110.41;7246802;19;153310;-54
2022/12/06 07:33:53;;;;;;;;;;;;;;;21.90;43.47;102111.78;7227071;19;155958;-53
2022/12/06 07:36:22;;;;;;;;;;;;;;;21.91;43.21;102113.47;7238085;19;152371;-53
2022/12/06 07:38:49;;;;;;;;;;;;;;;21.88;42.27;102109.28;7244600;19;153800;-53
2022/12/06 07:46:17;;;;;;;;;;;;;;;21.84;41.59;102102.56;7241054;19;153232;-53
2022/12/06 07:48:44;;;;;;;;;;;;;;;21.84;41.36;102098.91;7245346;19;153226;-53
2022/12/06 07:51:12;;;;;;;;;;;;;;;21.63;38.03;102107.44;7243517;19;153267;-54
2022/12/06 07:53:39;;;;;;;;;;;;;;;21.51;38.08;102112.53;7249449;19;154355;-53
2022/12/06 07:56:06;;;;;;;;;;;;;;;21.55;38.79;102099.59;7252703;19;153043;-53
2022/12/06 07:58:34;;;;;;;;;;;;;;;21.59;38.76;102102.66;7252038;19;153818;-54
2022/12/06 08:01:02;;;;;;;;;;;;;;;21.62;39.09;102104.94;7252631;19;153731;-56
2022/12/06 08:03:29;;;;;;;;;;;;;;;21.65;39.45;102115.59;7258952;19;152864;-53
2022/12/06 08:05:57;;;;;;;;;;;;;;;21.66;39.48;102118.13;7252087;19;153588;-53
2022/12/06 08:08:24;;;;;;;;;;;;;;;21.69;39.69;102122.31;7250888;19;154450;-53
2022/12/06 08:10:57;;;;;;;;;;;;;;;21.69;39.77;102127.94;7252390;19;153070;-53
2022/12/06 08:13:24;;;;;;;;;;;;;;;21.71;39.68;102126.50;7249329;19;154001;-53
2022/12/06 08:15:52;;;;;;;;;;;;;;;21.72;39.80;102121.72;7250920;19;154287;-53
2022/12/06 08:18:19;;;;;;;;;;;;;;;21.73;39.37;102129.91;7248785;19;154679;-53
2022/12/06 08:20:46;;;;;;;;;;;;;;;21.73;39.79;102132.72;7250636;19;154743;-52
2022/12/06 08:23:16;;;;;;;;;;;;;;;21.74;39.66;102130.75;7198147;19;155831;-53
2022/12/06 08:25:46;;;;;;;;;;;;;;;21.74;39.48;102133.56;7244479;19;154333;-52
2022/12/06 08:28:13;;;;;;;;;;;;;;;21.73;39.54;102141.16;7243456;19;152798;-53
2022/12/06 08:30:40;;;;;;;;;;;;;;;21.72;39.35;102141.41;7245323;19;153700;-52
2022/12/06 08:33:08;;;;;;;;;;;;;;;21.71;39.25;102143.38;7243665;19;154668;-53
2022/12/06 08:35:36;;;;;;;;;;;;;;;21.69;38.51;102145.66;7245021;19;153715;-53
2022/12/06 08:38:03;;;;;;;;;;;;;;;21.70;39.03;102152.97;7243266;19;154687;-53
2022/12/06 08:40:30;;;;;;;;;;;;;;;21.72;39.71;102149.88;7245335;19;154327;-52
2022/12/06 08:42:57;;;;;;;;;;;;;;;21.69;38.83;102154.09;7249338;19;152402;-54
2022/12/06 08:45:24;;;;;;;;;;;;;;;21.64;38.61;102159.75;7251415;19;154070;-53
2022/12/06 08:47:51;;;;;;;;;;;;;;;21.62;38.63;102161.19;7256472;19;152585;-53
2022/12/06 08:50:18;;;;;;;;;;;;;;;21.56;38.14;102151.91;7250330;19;153434;-53
2022/12/06 08:52:45;;;;;;;;;;;;;;;21.54;38.67;102158.94;7248133;19;153613;-53
2022/12/06 08:55:13;;;;;;;;;;;;;;;21.51;38.07;102157.53;7251228;19;152791;-53
2022/12/06 08:57:40;;;;;;;;;;;;;;;21.49;38.31;102156.13;7250997;19;153741;-53
2022/12/06 09:00:09;;;;;;;;;;;;;;;21.49;38.18;102158.94;7249858;19;153069;-53
2022/12/06 09:02:38;;;;;;;;;;;;;;;21.50;38.20;102163.44;7246612;19;152123;-53
2022/12/06 09:05:05;;;;;;;;;;;;;;;21.50;38.81;102158.66;7251787;19;153644;-53
2022/12/06 09:07:33;;;;;;;;;;;;;;;21.51;38.66;102159.50;7260366;19;154580;-53
2022/12/06 09:10:01;;;;;;;;;;;;;;;21.52;38.46;102161.19;7251042;19;153272;-53
2022/12/06 09:12:28;;;;;;;;;;;;;;;21.53;38.27;102166.50;7245777;19;154355;-53
2022/12/06 09:14:55;;;;;;;;;;;;;;;21.54;38.26;102171.03;7252715;19;152893;-53
2022/12/06 09:17:22;;;;;;;;;;;;;;;21.55;38.35;102169.91;7248458;19;154184;-53
2022/12/06 09:19:50;;;;;;;;;;;;;;;21.55;38.44;102164.28;7250008;19;153742;-52
2022/12/06 09:22:17;;;;;;;;;;;;;;;21.56;38.44;102173.56;7248602;19;152817;-53
2022/12/06 09:24:44;;;;;;;;;;;;;;;21.55;38.24;102174.69;7252140;19;153517;-53
2022/12/06 09:27:11;;;;;;;;;;;;;;;21.54;37.90;102173.00;7248425;19;155265;-53
2022/12/06 09:29:38;;;;;;;;;;;;;;;21.54;38.12;102170.19;7255387;19;152814;-53
2022/12/06 09:32:06;;;;;;;;;;;;;;;21.51;38.10;102165.97;7245600;19;154264;-53
2022/12/06 09:34:33;;;;;;;;;;;;;;;21.50;37.89;102169.91;7248482;19;153487;-53
2022/12/06 09:37:03;;;;;;;;;;;;;;;21.50;37.98;102174.69;7246996;19;154145;-52
2022/12/06 09:39:33;;;;;;;;;;;;;;;21.47;37.54;102167.69;7248020;19;154543;-52
2022/12/06 09:42:03;;;;;;;;;;;;;;;21.47;37.82;102175.28;7245898;19;152796;-52
2022/12/06 09:44:33;;;;;;;;;;;;;;;21.45;37.87;102169.91;7250683;19;153273;-52
2022/12/06 09:47:04;;;;;;;;;;;;;;;21.44;37.88;102179.47;7245493;19;153998;-53
2022/12/06 09:49:41;;;;;;;;;;;;;;;21.41;37.61;102177.25;7252048;19;152241;-53
2022/12/06 09:52:12;;;;;;;;;;;;;;;21.42;37.96;102183.72;7257860;19;154030;-52
2022/12/06 09:54:42;;;;;;;;;;;;;;;21.39;37.43;102175.84;7252209;19;152772;-53
2022/12/06 09:57:18;;;;;;;;;;;;;;;21.37;37.46;102187.38;7246925;19;153170;-52
2022/12/06 09:59:48;;;;;;;;;;;;;;;21.36;37.78;102182.88;7247294;19;152808;-54
2022/12/06 10:02:18;;;;;;;;;;;;;;;21.34;37.65;102187.09;7247663;19;152347;-53
2022/12/06 10:04:46;;;;;;;;;;;;;;;21.32;37.71;102193.00;7246795;19;153121;-52
2022/12/06 10:07:13;;;;;;;;;;;;;;;21.30;37.56;102200.91;7246652;19;153979;-52
2022/12/06 10:09:42;;;;;;;;;;;;;;;21.28;37.51;102203.13;7248967;19;152329;-52
2022/12/06 10:12:12;;;;;;;;;;;;;;;21.26;37.54;102197.78;7245254;19;153997;-52
2022/12/06 10:14:41;;;;;;;;;;;;;;;21.24;37.56;102202.88;7250943;19;152844;-53
2022/12/06 10:17:11;;;;;;;;;;;;;;;21.22;37.70;102198.63;7244653;19;152538;-53
2022/12/06 10:19:41;;;;;;;;;;;;;;;21.21;37.46;102202.59;7245793;19;153401;-52
2022/12/06 10:22:11;;;;;;;;;;;;;;;21.17;37.29;102191.06;7247748;19;154716;-52
2022/12/06 10:24:41;;;;;;;;;;;;;;;21.16;37.63;102196.97;7245324;19;152654;-53
2022/12/06 10:27:12;;;;;;;;;;;;;;;21.14;37.69;102199.22;7243936;19;153303;-52
2022/12/06 10:29:42;;;;;;;;;;;;;;;21.12;37.72;102199.44;7245923;19;154842;-52
2022/12/06 10:32:10;;;;;;;;;;;;;;;21.11;37.32;102194.97;7247915;19;153290;-52
2022/12/06 10:34:39;;;;;;;;;;;;;;;21.09;37.77;102196.38;7245685;19;154155;-53
2022/12/06 10:37:17;;;;;;;;;;;;;;;21.06;37.36;102194.13;7254581;19;153821;-52
2022/12/06 10:39:45;;;;;;;;;;;;;;;21.05;37.44;102190.47;7248839;19;154536;-52
2022/12/06 10:42:20;;;;;;;;;;;;;;;21.03;37.70;102189.09;7247183;19;153673;-52
2022/12/06 10:44:51;;;;;;;;;;;;;;;21.01;37.44;102183.72;7247034;19;155960;-53
2022/12/06 10:47:22;;;;;;;;;;;;;;;20.98;37.97;102189.09;7242164;19;153056;-53
2022/12/06 10:49:54;;;;;;;;;;;;;;;20.97;37.66;102171.38;7247129;19;152709;-53
2022/12/06 10:52:22;;;;;;;;;;;;;;;20.96;37.94;102185.69;7244693;19;153362;-52
2022/12/06 10:54:53;;;;;;;;;;;;;;;20.93;37.79;102175.88;7244672;19;153128;-53
2022/12/06 10:57:27;;;;;;;;;;;;;;;20.88;37.82;102173.06;7242347;19;153442;-52
2022/12/06 11:00:00;;;;;;;;;;;;;;;20.86;37.98;102169.69;7198393;19;155232;-53
2022/12/06 11:02:36;;;;;;;;;;;;;;;20.83;37.77;102162.66;7232356;19;153516;-52
2022/12/06 11:05:09;;;;;;;;;;;;;;;20.79;38.29;102167.16;7242108;19;154000;-53
2022/12/06 11:07:39;;;;;;;;;;;;;;;20.78;38.20;102165.47;7242150;19;154056;-52
2022/12/06 11:10:10;;;;;;;;;;;;;;;20.75;37.92;102163.25;7244613;19;152328;-53
2022/12/06 11:12:38;;;;;;;;;;;;;;;20.76;38.16;102158.44;7245722;19;153541;-52
2022/12/06 11:15:14;;;;;;;;;;;;;;;20.76;38.10;102164.06;7242813;19;153489;-52
2022/12/06 11:17:43;;;;;;;;;;;;;;;20.78;38.25;102159.00;7243162;19;152697;-53
2022/12/06 11:20:14;;;;;;;;;;;;;;;20.78;38.14;102164.63;7253834;19;152594;-53
2022/12/06 11:22:45;;;;;;;;;;;;;;;20.80;38.44;102153.97;7248847;19;153616;-53
2022/12/06 11:25:15;;;;;;;;;;;;;;;20.80;38.31;102157.59;7243878;19;153466;-53
2022/12/06 11:27:46;;;;;;;;;;;;;;;20.82;38.33;102160.97;7245751;19;154192;-53
2022/12/06 11:30:22;;;;;;;;;;;;;;;20.86;38.75;102167.72;7248575;19;153214;-53
2022/12/06 11:32:50;;;;;;;;;;;;;;;20.90;38.58;102158.72;7251834;19;154418;-53
2022/12/06 11:35:19;;;;;;;;;;;;;;;20.93;38.71;102153.41;7247754;19;155943;-53
2022/12/06 11:37:55;;;;;;;;;;;;;;;20.97;38.66;102162.09;7249694;19;152227;-53
2022/12/06 11:40:25;;;;;;;;;;;;;;;21.00;38.31;102155.91;7251873;19;152767;-53
2022/12/06 11:42:53;;;;;;;;;;;;;;;21.02;38.75;102150.88;7260741;19;153941;-52
2022/12/06 11:45:24;;;;;;;;;;;;;;;21.06;38.59;102137.94;7253386;19;153807;-53
2022/12/06 11:47:58;;;;;;;;;;;;;;;21.08;38.56;102139.31;7248142;19;153816;-52
2022/12/06 11:50:34;;;;;;;;;;;;;;;21.12;39.02;102142.44;7253657;19;153981;-53
2022/12/06 11:53:04;;;;;;;;;;;;;;;21.16;38.59;102140.75;7249390;19;153958;-52
2022/12/06 11:55:34;;;;;;;;;;;;;;;21.18;38.63;102130.06;7248972;19;154262;-52
2022/12/06 11:58:05;;;;;;;;;;;;;;;21.21;38.68;102133.13;7248496;19;152922;-53
2022/12/06 12:00:32;;;;;;;;;;;;;;;21.24;38.40;102126.97;7232867;19;153651;-53
2022/12/06 12:02:59;;;;;;;;;;;;;;;21.28;38.37;102130.03;7243043;19;156750;-53
2022/12/06 12:05:29;;;;;;;;;;;;;;;21.31;38.31;102126.66;7255022;19;152713;-53
2022/12/06 12:07:58;;;;;;;;;;;;;;;21.33;38.53;102124.41;7247646;19;153567;-53
2022/12/06 12:10:25;;;;;;;;;;;;;;;21.36;38.25;102117.38;7246414;19;153368;-53
2022/12/06 12:16:07;;;;;;;;;;;;;;;21.37;37.98;102125.53;7244229;19;153176;-53
2022/12/06 12:18:49;;;;;;;;;;;;;;;21.40;37.98;102122.13;7243350;19;154210;-53
2022/12/06 12:21:16;;;;;;;;;;;;;;;21.41;37.86;102120.16;7245719;19;153367;-52
2022/12/06 12:23:44;;;;;;;;;;;;;;;21.42;38.15;102117.06;7243512;19;153953;-53
2022/12/06 12:26:14;;;;;;;;;;;;;;;21.44;37.88;102114.81;7242646;19;152545;-53
2022/12/06 12:28:43;;;;;;;;;;;;;;;21.43;37.75;102120.72;7248997;19;152952;-53
2022/12/06 12:31:17;;;;;;;;;;;;;;;21.41;37.74;102118.19;7243684;19;153831;-53
2022/12/06 12:33:44;;;;;;;;;;;;;;;21.41;37.65;102111.72;7245832;19;154373;-52
2022/12/06 12:36:15;;;;;;;;;;;;;;;21.40;37.68;102104.41;7244192;19;154950;-53
2022/12/06 12:38:45;;;;;;;;;;;;;;;21.38;37.46;102103.88;7244585;19;152841;-53
2022/12/06 12:41:17;;;;;;;;;;;;;;;21.37;37.44;102103.03;7246276;19;153028;-53
2022/12/06 12:43:53;;;;;;;;;;;;;;;21.38;37.63;102098.25;7242945;19;153556;-53
2022/12/06 12:46:43;;;;;;;;;;;;;;;21.39;37.73;102092.34;7244918;19;152932;-53
2022/12/06 12:49:13;;;;;;;;;;;;;;;21.40;37.96;102085.59;7242258;19;152498;-53
2022/12/06 12:51:40;;;;;;;;;;;;;;;21.44;37.69;102078.25;7249965;19;154609;-53
2022/12/06 12:54:16;;;;;;;;;;;;;;;21.46;37.64;102077.97;7246344;19;156457;-53
2022/12/06 12:56:43;;;;;;;;;;;;;;;21.49;38.11;102071.75;7246525;19;155026;-53
2022/12/06 12:59:12;;;;;;;;;;;;;;;21.51;37.83;102073.19;7248949;19;153491;-53